createdAt,value
2023-10-17T00:01:36.062Z,4.20
2023-10-17T00:04:28.049Z,5.00
2023-10-17T00:07:04.289Z,4.50
2023-10-17T00:09:38.091Z,5.60
2023-10-17T00:12:15.542Z,4.90
2023-10-17T00:14:55.258Z,4.90
2023-10-17T00:17:22.924Z,4.20
2023-10-17T00:19:53.140Z,5.00
2023-10-17T00:22:20.523Z,4.40
2023-10-17T00:24:53.086Z,5.70
2023-10-17T00:27:20.524Z,5.40
2023-10-17T00:29:47.717Z,4.90
2023-10-17T00:32:16.150Z,4.90
2023-10-17T00:34:45.188Z,4.50
2023-10-17T00:37:12.880Z,4.30
2023-10-17T00:39:40.439Z,5.20
2023-10-17T00:42:09.566Z,5.40
2023-10-17T00:44:38.415Z,5.80
2023-10-17T00:47:08.151Z,10.00
2023-10-17T00:49:42.733Z,11.10
2023-10-17T00:52:20.461Z,13.30
2023-10-17T00:54:48.841Z,13.90
2023-10-17T00:57:16.848Z,13.70
2023-10-17T00:59:54.771Z,14.00
2023-10-17T01:02:25.083Z,13.80
2023-10-17T01:04:53.840Z,11.80
2023-10-17T01:07:36.041Z,12.10
2023-10-17T01:10:15.676Z,10.60
2023-10-17T01:12:54.396Z,11.90
2023-10-17T01:15:29.935Z,13.30
2023-10-17T01:18:07.289Z,10.90
2023-10-17T01:20:36.732Z,11.70
2023-10-17T01:23:05.639Z,11.40
2023-10-17T01:25:36.916Z,10.20
2023-10-17T01:28:07.508Z,13.60
2023-10-17T01:30:34.832Z,10.90
2023-10-17T01:33:02.122Z,10.30
2023-10-17T01:35:29.582Z,11.00
2023-10-17T01:37:57.245Z,11.30
2023-10-17T01:40:25.096Z,9.90
2023-10-17T01:42:53.498Z,9.00
2023-10-17T01:45:28.258Z,9.70
2023-10-17T01:47:55.746Z,9.80
2023-10-17T01:50:25.807Z,10.70
2023-10-17T01:52:59.751Z,9.50
2023-10-17T01:55:29.755Z,9.00
2023-10-17T01:58:01.383Z,10.60
2023-10-17T02:00:37.661Z,7.40
2023-10-17T02:03:07.136Z,9.20
2023-10-17T02:05:37.804Z,10.70
2023-10-17T02:08:06.744Z,11.00
2023-10-17T02:10:35.083Z,10.30
2023-10-17T02:13:05.857Z,9.80
2023-10-17T02:15:33.216Z,9.60
2023-10-17T02:18:05.442Z,10.80
2023-10-17T02:20:35.980Z,9.70
2023-10-17T02:23:20.539Z,11.40
2023-10-17T02:25:47.896Z,11.50
2023-10-17T02:28:15.037Z,11.20
2023-10-17T02:30:42.196Z,10.60
2023-10-17T02:33:15.335Z,9.70
2023-10-17T02:35:55.026Z,10.00
2023-10-17T02:38:22.493Z,10.70
2023-10-17T02:40:54.656Z,10.60
2023-10-17T02:43:21.812Z,10.10
2023-10-17T02:45:50.940Z,11.30
2023-10-17T02:48:28.052Z,11.60
2023-10-17T02:51:02.490Z,11.70
2023-10-17T02:53:31.601Z,12.70
2023-10-17T02:56:00.571Z,12.70
2023-10-17T02:58:27.663Z,12.20
2023-10-17T03:00:55.126Z,13.70
2023-10-17T03:03:23.766Z,14.70
2023-10-17T03:05:54.980Z,17.80
2023-10-17T03:08:22.599Z,13.00
2023-10-17T03:10:57.154Z,13.90
2023-10-17T03:13:35.203Z,11.90
2023-10-17T03:16:15.656Z,11.20
2023-10-17T03:18:43.248Z,10.40
2023-10-17T03:21:10.573Z,9.50
2023-10-17T03:23:39.337Z,10.90
2023-10-17T03:26:06.490Z,11.80
2023-10-17T03:28:34.898Z,12.90
2023-10-17T03:31:11.885Z,15.60
2023-10-17T03:33:43.947Z,14.00
2023-10-17T03:36:31.300Z,20.00
2023-10-17T03:39:18.565Z,16.40
2023-10-17T03:41:46.739Z,16.20
2023-10-17T03:44:19.603Z,16.40
2023-10-17T03:46:49.924Z,15.20
2023-10-17T03:49:19.892Z,15.70
2023-10-17T03:51:56.964Z,14.60
2023-10-17T03:54:24.531Z,14.20
2023-10-17T03:56:57.720Z,14.70
2023-10-17T03:59:40.483Z,14.10
2023-10-17T04:02:20.645Z,14.80
2023-10-17T04:04:57.387Z,15.80
2023-10-17T04:07:28.558Z,14.00
2023-10-17T04:10:01.767Z,13.50
2023-10-17T04:12:49.679Z,12.70
2023-10-17T04:15:20.602Z,14.60
2023-10-17T04:17:48.010Z,13.80
2023-10-17T04:20:18.033Z,13.40
2023-10-17T04:22:45.280Z,12.50
2023-10-17T04:25:35.391Z,14.10
2023-10-17T04:28:03.132Z,13.10
2023-10-17T04:30:47.890Z,15.70
2023-10-17T04:33:15.580Z,15.40
2023-10-17T04:35:48.820Z,15.60
2023-10-17T04:38:28.630Z,16.70
2023-10-17T04:41:04.011Z,14.90
2023-10-17T04:43:49.893Z,16.60
2023-10-17T04:46:18.662Z,17.40
2023-10-17T04:48:48.817Z,16.50
2023-10-17T04:51:18.587Z,15.80
2023-10-17T04:53:52.036Z,18.40
2023-10-17T04:56:24.320Z,19.30
2023-10-17T04:58:57.798Z,15.70
2023-10-17T05:01:38.234Z,18.50
2023-10-17T05:04:17.074Z,18.10
2023-10-17T05:07:07.671Z,17.00
2023-10-17T05:09:37.702Z,17.90
2023-10-17T05:12:24.045Z,19.60
2023-10-17T05:15:09.812Z,18.50
2023-10-17T05:17:55.761Z,17.20
2023-10-17T05:20:52.358Z,20.40
2023-10-17T05:23:38.145Z,20.40
2023-10-17T05:26:27.822Z,19.90
2023-10-17T05:29:13.807Z,21.20
2023-10-17T05:32:13.177Z,20.90
2023-10-17T05:34:59.788Z,22.20
2023-10-17T05:37:47.045Z,22.50
2023-10-17T05:40:32.931Z,22.10
2023-10-17T05:43:18.445Z,24.10
2023-10-17T05:46:33.472Z,23.80
2023-10-17T05:49:19.583Z,22.00
2023-10-17T05:52:05.212Z,17.90
2023-10-17T05:57:39.911Z,18.10
2023-10-17T06:00:26.156Z,20.10
2023-10-17T06:03:11.905Z,17.50
2023-10-17T06:06:05.030Z,15.80
2023-10-17T06:08:50.887Z,16.00
2023-10-17T06:11:36.871Z,16.10
2023-10-17T06:14:42.403Z,14.60
2023-10-17T06:17:23.739Z,11.90
2023-10-17T06:19:51.300Z,12.10
2023-10-17T06:22:21.061Z,12.40
2023-10-17T06:24:48.536Z,16.80
2023-10-17T06:27:36.266Z,16.90
2023-10-17T06:30:23.002Z,17.10
2023-10-17T06:32:50.241Z,16.10
2023-10-17T06:35:24.671Z,14.70
2023-10-17T06:37:53.223Z,15.10
2023-10-17T06:40:31.420Z,15.70
2023-10-17T06:43:01.952Z,18.50
2023-10-17T06:45:33.921Z,20.40
2023-10-17T06:48:09.218Z,22.90
2023-10-17T06:50:55.368Z,25.20
2023-10-17T06:53:29.150Z,22.70
2023-10-17T06:56:05.637Z,22.40
2023-10-17T06:58:34.314Z,22.80
2023-10-17T07:01:03.046Z,23.70
2023-10-17T07:03:36.168Z,22.30
2023-10-17T07:06:14.672Z,21.10
2023-10-17T07:08:42.846Z,19.30
2023-10-17T07:11:28.460Z,19.10
2023-10-17T07:14:23.359Z,18.50
2023-10-17T07:16:50.809Z,19.40
2023-10-17T07:19:27.335Z,19.80
2023-10-17T07:22:02.550Z,21.20
2023-10-17T07:24:36.012Z,20.10
2023-10-17T07:27:20.778Z,18.60
2023-10-17T07:30:00.027Z,20.20
2023-10-17T07:32:34.843Z,22.20
2023-10-17T07:35:06.414Z,19.80
2023-10-17T07:37:49.642Z,19.40
2023-10-17T07:40:16.877Z,17.40
2023-10-17T07:42:47.217Z,17.50
2023-10-17T07:45:15.981Z,16.50
2023-10-17T07:47:44.710Z,16.10
2023-10-17T07:50:15.646Z,17.30
2023-10-17T07:52:49.118Z,17.20
2023-10-17T07:55:19.954Z,16.60
2023-10-17T07:57:53.044Z,15.10
2023-10-17T08:00:31.253Z,11.60
2023-10-17T08:03:08.935Z,11.40
2023-10-17T08:05:39.162Z,11.20
2023-10-17T08:08:10.111Z,7.10
2023-10-17T08:10:37.300Z,7.70
2023-10-17T08:13:05.182Z,5.90
2023-10-17T08:15:40.087Z,7.30
2023-10-17T08:18:16.406Z,8.80
2023-10-17T08:21:03.471Z,7.30
2023-10-17T08:23:31.645Z,8.30
2023-10-17T08:26:02.585Z,10.20
2023-10-17T08:28:48.100Z,9.30
2023-10-17T08:31:26.000Z,8.30
2023-10-17T08:34:03.360Z,10.70
2023-10-17T08:36:44.570Z,8.00
2023-10-17T08:39:31.720Z,13.10
2023-10-17T08:42:07.705Z,12.20
2023-10-17T08:44:40.710Z,11.10
2023-10-17T08:47:28.324Z,9.80
2023-10-17T08:49:56.041Z,8.10
2023-10-17T08:52:25.979Z,8.60
2023-10-17T08:54:53.318Z,8.40
2023-10-17T08:57:25.014Z,2.50
2023-10-17T08:59:52.402Z,5.30
2023-10-17T09:02:25.916Z,3.70
2023-10-17T09:04:53.625Z,2.60
2023-10-17T09:07:33.967Z,3.00
2023-10-17T09:10:08.900Z,2.30
2023-10-17T09:12:44.537Z,3.00
2023-10-17T09:15:28.904Z,3.10
2023-10-17T09:18:09.782Z,3.40
2023-10-17T09:20:38.933Z,4.50
2023-10-17T09:26:09.208Z,3.20
2023-10-17T09:28:37.369Z,2.50
2023-10-17T09:31:13.971Z,1.40
2023-10-17T09:33:46.311Z,1.60
2023-10-17T09:36:19.148Z,3.00
2023-10-17T09:38:48.315Z,3.40
2023-10-17T09:41:20.201Z,3.50
2023-10-17T09:43:55.507Z,2.60
2023-10-17T09:46:31.073Z,2.80
2023-10-17T09:49:01.915Z,3.40
2023-10-17T09:51:35.305Z,3.00
2023-10-17T09:54:06.127Z,2.80
2023-10-17T09:56:42.589Z,3.10
2023-10-17T09:59:23.146Z,3.00
2023-10-17T10:01:52.070Z,2.60
2023-10-17T10:04:21.183Z,2.60
2023-10-17T10:06:49.558Z,2.40
2023-10-17T10:09:17.529Z,2.60
2023-10-17T10:11:53.515Z,2.30
2023-10-17T10:14:29.609Z,2.20
2023-10-17T10:17:07.313Z,2.40
2023-10-17T10:19:43.663Z,2.00
2023-10-17T10:22:12.596Z,2.60
2023-10-17T10:24:41.384Z,2.40
2023-10-17T10:27:21.013Z,2.70
2023-10-17T10:29:54.130Z,2.30
2023-10-17T10:32:27.385Z,1.80
2023-10-17T10:34:55.050Z,1.90
2023-10-17T10:37:23.446Z,2.00
2023-10-17T10:40:10.462Z,2.10
2023-10-17T10:42:52.106Z,2.40
2023-10-17T10:45:56.863Z,5.30
2023-10-17T10:48:24.389Z,2.60
2023-10-17T10:51:01.610Z,2.30
2023-10-17T10:53:31.178Z,2.80
2023-10-17T10:56:03.659Z,2.80
2023-10-17T10:58:34.874Z,2.50
2023-10-17T11:01:04.585Z,2.90
2023-10-17T11:06:06.119Z,2.60
2023-10-17T11:08:48.458Z,2.30
2023-10-17T11:11:18.233Z,2.30
2023-10-17T11:13:50.196Z,2.40
2023-10-17T11:16:22.665Z,2.50
2023-10-17T11:18:50.415Z,2.70
2023-10-17T11:21:24.024Z,2.50
2023-10-17T11:23:56.724Z,2.70
2023-10-17T11:26:28.774Z,2.40
2023-10-17T11:28:57.945Z,2.30
2023-10-17T11:31:26.645Z,3.00
2023-10-17T11:34:06.138Z,2.10
2023-10-17T11:36:56.413Z,2.40
2023-10-17T11:39:28.006Z,2.50
2023-10-17T11:41:56.049Z,3.20
2023-10-17T11:44:25.725Z,2.70
2023-10-17T11:46:57.354Z,3.00
2023-10-17T11:49:28.714Z,3.30
2023-10-17T11:54:34.281Z,2.50
2023-10-17T11:57:16.277Z,4.10
2023-10-17T11:59:57.499Z,2.60
2023-10-17T12:02:25.604Z,2.80
2023-10-17T12:04:54.611Z,2.40
2023-10-17T12:07:22.950Z,2.70
2023-10-17T12:09:53.881Z,2.20
2023-10-17T12:12:21.294Z,2.60
2023-10-17T12:14:49.063Z,2.90
2023-10-17T12:17:20.957Z,2.50
2023-10-17T12:19:48.715Z,3.00
2023-10-17T12:22:16.134Z,2.80
2023-10-17T12:24:44.307Z,3.10
2023-10-17T12:27:14.060Z,3.10
2023-10-17T12:29:42.286Z,2.50
2023-10-17T12:32:13.205Z,3.00
2023-10-17T12:34:43.871Z,3.00
2023-10-17T12:37:13.176Z,3.30
2023-10-17T12:39:44.317Z,3.60
2023-10-17T12:42:15.633Z,2.90
2023-10-17T12:47:09.981Z,3.70
2023-10-17T12:49:38.728Z,4.10
2023-10-17T12:52:06.641Z,4.90
2023-10-17T12:54:34.230Z,4.90
2023-10-17T12:57:01.456Z,5.20
2023-10-17T12:59:28.560Z,6.00
2023-10-17T13:01:56.287Z,4.90
2023-10-17T13:04:25.444Z,4.20
2023-10-17T13:06:55.032Z,4.10
2023-10-17T13:09:24.304Z,4.70
2023-10-17T13:11:51.553Z,5.10
2023-10-17T13:14:18.911Z,3.30
2023-10-17T13:16:47.244Z,3.90
2023-10-17T13:19:18.133Z,3.40
2023-10-17T13:21:47.018Z,3.90
2023-10-17T13:24:16.093Z,4.50
2023-10-17T13:26:45.441Z,3.90
2023-10-17T13:29:14.083Z,4.00
2023-10-17T13:31:41.372Z,4.40
2023-10-17T13:34:08.851Z,4.60
2023-10-17T13:36:36.126Z,4.20
2023-10-17T13:39:06.079Z,4.20
2023-10-17T13:41:33.300Z,3.70
2023-10-17T13:44:00.548Z,4.60
2023-10-17T13:46:27.804Z,3.60
2023-10-17T13:48:55.299Z,4.00
2023-10-17T13:51:22.972Z,4.20
2023-10-17T13:53:51.706Z,4.10
2023-10-17T13:56:22.952Z,3.90
2023-10-17T13:58:51.019Z,3.70
2023-10-17T14:01:34.191Z,3.70
2023-10-17T14:04:03.555Z,3.60
2023-10-17T14:06:39.884Z,3.50
2023-10-17T14:09:19.025Z,4.00
2023-10-17T14:11:49.610Z,3.90
2023-10-17T14:14:17.144Z,3.90
2023-10-17T14:16:45.281Z,2.70
2023-10-17T14:19:30.241Z,2.80
2023-10-17T14:22:12.293Z,4.30
2023-10-17T14:24:55.687Z,5.00
2023-10-17T14:27:24.602Z,4.90
2023-10-17T14:29:52.949Z,4.00
2023-10-17T14:32:22.193Z,3.90
2023-10-17T14:35:04.603Z,4.00
2023-10-17T14:37:34.812Z,4.50
2023-10-17T14:40:02.400Z,4.00
2023-10-17T14:42:30.283Z,3.90
2023-10-17T14:45:03.366Z,3.40
2023-10-17T14:47:31.565Z,3.70
2023-10-17T14:49:59.493Z,4.00
2023-10-17T14:52:26.544Z,3.70
2023-10-17T14:54:53.860Z,3.80
2023-10-17T14:57:22.781Z,3.60
2023-10-17T14:59:49.964Z,4.00
2023-10-17T15:02:17.118Z,3.80
2023-10-17T15:04:44.337Z,3.70
2023-10-17T15:07:13.568Z,3.70
2023-10-17T15:09:40.966Z,4.00
2023-10-17T15:12:10.368Z,3.60
2023-10-17T15:14:37.690Z,3.70
2023-10-17T15:17:06.581Z,4.10
2023-10-17T15:19:34.685Z,4.20
2023-10-17T15:22:05.299Z,5.20
2023-10-17T15:24:32.686Z,7.40
2023-10-17T15:27:00.283Z,9.00
2023-10-17T15:29:29.094Z,11.00
2023-10-17T15:31:56.991Z,11.60
2023-10-17T15:34:24.428Z,12.70
2023-10-17T15:36:53.452Z,14.20
2023-10-17T15:39:27.246Z,14.10
2023-10-17T15:41:54.972Z,14.30
2023-10-17T15:44:22.891Z,15.40
2023-10-17T15:46:50.409Z,14.90
2023-10-17T15:49:18.163Z,15.10
2023-10-17T15:51:45.513Z,15.40
2023-10-17T15:54:12.990Z,15.30
2023-10-17T15:56:40.103Z,14.50
2023-10-17T15:59:09.592Z,14.50
2023-10-17T16:01:36.957Z,15.00
2023-10-17T16:04:04.213Z,15.90
2023-10-17T16:06:31.942Z,15.50
2023-10-17T16:08:59.147Z,13.10
2023-10-17T16:11:30.212Z,15.20
2023-10-17T16:13:57.442Z,15.00
2023-10-17T16:16:25.850Z,15.70
2023-10-17T16:18:54.017Z,15.40
2023-10-17T16:21:21.396Z,15.00
2023-10-17T16:23:51.555Z,15.20
2023-10-17T16:26:18.950Z,17.30
2023-10-17T16:28:46.616Z,20.40
2023-10-17T16:31:14.869Z,16.90
2023-10-17T16:33:42.198Z,18.00
2023-10-17T16:36:10.336Z,16.90
2023-10-17T16:38:37.690Z,16.90
2023-10-17T16:41:04.982Z,15.70
2023-10-17T16:43:33.558Z,14.50
2023-10-17T16:46:02.032Z,13.50
2023-10-17T16:48:31.133Z,12.10
2023-10-17T16:51:00.831Z,11.20
2023-10-17T16:53:30.058Z,10.10
2023-10-17T16:55:58.563Z,8.30
2023-10-17T16:58:27.927Z,11.40
2023-10-17T17:01:07.354Z,16.80
2023-10-17T17:03:34.737Z,16.50
2023-10-17T17:06:09.512Z,12.70
2023-10-17T17:08:37.123Z,16.90
2023-10-17T17:11:07.953Z,19.50
2023-10-17T17:13:36.147Z,15.90
2023-10-17T17:16:04.432Z,14.80
2023-10-17T17:21:07.145Z,23.90
2023-10-17T17:23:34.480Z,20.30
2023-10-17T17:26:01.834Z,22.70
2023-10-17T17:28:29.089Z,20.30
2023-10-17T17:30:56.266Z,15.70
2023-10-17T17:33:23.558Z,15.80
2023-10-17T17:35:50.769Z,14.40
2023-10-17T17:38:18.635Z,11.20
2023-10-17T17:40:46.360Z,10.70
2023-10-17T17:43:14.272Z,13.40
2023-10-17T17:45:45.249Z,19.70
2023-10-17T17:48:12.638Z,17.20
2023-10-17T17:50:40.243Z,30.80
2023-10-17T17:53:07.402Z,22.90
2023-10-17T17:55:40.657Z,22.50
2023-10-17T17:58:08.561Z,30.70
2023-10-17T18:00:36.029Z,26.30
2023-10-17T18:03:03.625Z,23.60
2023-10-17T18:05:30.838Z,23.60
2023-10-17T18:07:58.034Z,25.40
2023-10-17T18:10:25.241Z,29.70
2023-10-17T18:12:52.684Z,50.60
2023-10-17T18:15:19.961Z,61.50
2023-10-17T18:17:48.599Z,54.30
2023-10-17T18:20:15.809Z,53.40
2023-10-17T18:22:46.851Z,57.10
2023-10-17T18:25:13.896Z,66.20
2023-10-17T18:27:40.991Z,90.20
2023-10-17T18:30:08.716Z,72.50
2023-10-17T18:32:36.157Z,68.80
2023-10-17T18:35:06.723Z,69.30
2023-10-17T18:37:39.249Z,59.80
2023-10-17T18:40:12.647Z,60.50
2023-10-17T18:42:40.821Z,58.80
2023-10-17T18:45:16.064Z,59.60
2023-10-17T18:47:43.811Z,55.90
2023-10-17T18:50:12.373Z,53.60
2023-10-17T18:52:39.733Z,63.70
2023-10-17T18:55:10.986Z,56.40
2023-10-17T18:57:41.839Z,52.60
2023-10-17T19:00:16.092Z,104.90
2023-10-17T19:02:44.849Z,74.20
2023-10-17T19:05:12.624Z,48.80
2023-10-17T19:07:42.766Z,44.90
2023-10-17T19:10:15.849Z,40.80
2023-10-17T19:12:51.953Z,39.80
2023-10-17T19:15:20.753Z,43.40
2023-10-17T19:17:47.942Z,48.60
2023-10-17T19:20:15.836Z,37.00
2023-10-17T19:22:44.543Z,26.60
2023-10-17T19:25:14.718Z,23.70
2023-10-17T19:27:42.005Z,22.80
2023-10-17T19:30:11.499Z,19.20
2023-10-17T19:32:39.721Z,17.40
2023-10-17T19:35:07.502Z,16.90
2023-10-17T19:37:34.606Z,14.90
2023-10-17T19:40:01.806Z,12.40
2023-10-17T19:42:29.109Z,10.10
2023-10-17T19:44:56.241Z,14.80
2023-10-17T19:47:23.568Z,18.20
2023-10-17T19:49:51.366Z,20.50
2023-10-17T19:52:18.719Z,22.60
2023-10-17T19:54:45.964Z,26.40
2023-10-17T19:57:13.255Z,33.30
2023-10-17T19:59:40.489Z,45.00
2023-10-17T20:02:07.618Z,57.10
2023-10-17T20:04:35.866Z,55.40
2023-10-17T20:07:03.164Z,58.10
2023-10-17T20:09:31.396Z,60.50
2023-10-17T20:12:00.494Z,62.80
2023-10-17T20:14:27.798Z,63.30
2023-10-17T20:16:55.043Z,61.50
2023-10-17T20:19:22.392Z,56.90
2023-10-17T20:21:49.822Z,52.40
2023-10-17T20:24:17.073Z,47.60
2023-10-17T20:26:44.227Z,44.80
2023-10-17T20:29:13.837Z,41.80
2023-10-17T20:31:41.153Z,37.90
2023-10-17T20:34:09.098Z,35.00
2023-10-17T20:36:37.494Z,35.50
2023-10-17T20:39:05.427Z,31.20
2023-10-17T20:41:34.931Z,28.30
2023-10-17T20:44:02.297Z,27.40
2023-10-17T20:46:33.429Z,25.00
2023-10-17T20:49:03.780Z,21.50
2023-10-17T20:51:31.268Z,20.10
2023-10-17T20:53:58.791Z,20.20
2023-10-17T20:56:38.736Z,22.70
2023-10-17T20:59:10.810Z,25.80
2023-10-17T21:01:38.088Z,26.10
2023-10-17T21:04:05.819Z,27.60
2023-10-17T21:06:33.876Z,26.80
2023-10-17T21:09:01.059Z,26.50
2023-10-17T21:11:28.373Z,26.20
2023-10-17T21:13:56.088Z,24.40
2023-10-17T21:16:23.415Z,24.50
2023-10-17T21:18:50.746Z,23.30
2023-10-17T21:21:17.982Z,20.90
2023-10-17T21:23:45.519Z,23.60
2023-10-17T21:26:14.097Z,21.20
2023-10-17T21:28:41.965Z,22.60
2023-10-17T21:31:09.606Z,22.60
2023-10-17T21:33:37.266Z,21.10
2023-10-17T21:36:06.056Z,20.00
2023-10-17T21:38:33.268Z,21.80
2023-10-17T21:41:03.268Z,20.60
2023-10-17T21:43:40.084Z,20.70
2023-10-17T21:46:08.899Z,20.90
2023-10-17T21:48:36.537Z,21.30
2023-10-17T21:51:10.270Z,20.60
2023-10-17T21:53:40.784Z,21.10
2023-10-17T21:56:08.883Z,20.80
2023-10-17T21:58:37.956Z,20.30
2023-10-17T22:01:06.540Z,20.30
2023-10-17T22:03:34.570Z,19.60
2023-10-17T22:06:07.996Z,20.60
2023-10-17T22:08:38.831Z,20.50
2023-10-17T22:11:20.289Z,19.30
2023-10-17T22:13:52.249Z,24.30
2023-10-17T22:16:23.176Z,29.30
2023-10-17T22:18:50.881Z,32.20
2023-10-17T22:21:21.340Z,28.10
2023-10-17T22:23:49.538Z,27.80
2023-10-17T22:26:17.076Z,27.10
2023-10-17T22:28:44.317Z,26.10
2023-10-17T22:31:11.745Z,28.90
2023-10-17T22:33:39.962Z,28.00
2023-10-17T22:36:09.381Z,28.90
2023-10-17T22:38:37.762Z,27.80
2023-10-17T22:41:05.831Z,30.10
2023-10-17T22:43:33.376Z,35.60
2023-10-17T22:46:06.126Z,33.80
2023-10-17T22:48:34.257Z,34.80
2023-10-17T22:51:02.472Z,33.90
2023-10-17T22:53:29.889Z,33.50
2023-10-17T22:55:57.140Z,33.20
2023-10-17T22:58:25.426Z,33.60
2023-10-17T23:00:53.104Z,38.00
2023-10-17T23:03:20.651Z,34.20
2023-10-17T23:05:47.907Z,34.30
2023-10-17T23:08:15.067Z,36.00
2023-10-17T23:10:42.222Z,33.70
2023-10-17T23:13:18.713Z,38.00
2023-10-17T23:15:58.001Z,35.40
2023-10-17T23:18:40.034Z,37.00
2023-10-17T23:21:20.121Z,39.20
2023-10-17T23:24:01.317Z,38.10
2023-10-17T23:26:42.329Z,37.00
2023-10-17T23:29:24.675Z,38.60
2023-10-17T23:32:02.435Z,35.40
2023-10-17T23:34:43.082Z,36.80
2023-10-17T23:37:22.783Z,34.90
2023-10-17T23:40:02.139Z,34.70
2023-10-17T23:42:42.478Z,32.40
2023-10-17T23:45:24.908Z,31.80
2023-10-17T23:48:07.857Z,38.30
2023-10-17T23:50:39.482Z,34.40
2023-10-17T23:53:10.729Z,36.00
2023-10-17T23:55:37.884Z,38.30
2023-10-17T23:58:05.271Z,35.70
